createdAt,value
2019-01-18T00:00:39.383Z,90.06
2019-01-18T00:03:08.007Z,90.32
2019-01-18T00:05:36.658Z,90.38
2019-01-18T00:08:05.599Z,90.84
2019-01-18T00:10:34.175Z,91.61
2019-01-18T00:13:02.766Z,92.20
2019-01-18T00:15:31.408Z,92.24
2019-01-18T00:17:59.970Z,92.07
2019-01-18T00:20:28.579Z,92.58
2019-01-18T00:22:57.109Z,92.95
2019-01-18T00:25:25.647Z,92.99
2019-01-18T00:27:54.464Z,92.90
2019-01-18T00:30:23.922Z,92.98
2019-01-18T00:32:52.438Z,92.48
2019-01-18T00:35:20.982Z,93.00
2019-01-18T00:37:49.532Z,92.62
2019-01-18T00:40:19.666Z,92.37
2019-01-18T00:42:48.223Z,93.04
2019-01-18T00:45:18.333Z,93.30
2019-01-18T00:47:46.964Z,92.37
2019-01-18T00:50:17.698Z,92.64
2019-01-18T00:52:46.342Z,92.16
2019-01-18T00:55:14.882Z,92.19
2019-01-18T00:57:43.868Z,92.21
2019-01-18T01:00:18.551Z,91.71
2019-01-18T01:02:47.359Z,92.24
2019-01-18T01:05:16.233Z,92.13
2019-01-18T01:07:44.860Z,90.66
2019-01-18T01:10:13.624Z,91.34
2019-01-18T01:12:42.093Z,91.17
2019-01-18T01:15:19.273Z,92.49
2019-01-18T01:17:48.603Z,93.58
2019-01-18T01:20:19.594Z,94.42
2019-01-18T01:22:48.569Z,94.21
2019-01-18T01:25:17.178Z,94.28
2019-01-18T01:27:45.841Z,93.82
2019-01-18T01:30:25.239Z,93.37
2019-01-18T01:32:55.627Z,93.14
2019-01-18T01:35:24.258Z,92.48
2019-01-18T01:37:52.820Z,92.44
2019-01-18T01:40:25.831Z,91.78
2019-01-18T01:42:54.690Z,91.68
2019-01-18T01:45:23.542Z,91.40
2019-01-18T01:47:51.989Z,92.68
2019-01-18T01:50:22.388Z,93.01
2019-01-18T01:52:50.920Z,91.78
2019-01-18T01:55:19.578Z,90.92
2019-01-18T01:57:48.032Z,90.68
2019-01-18T02:00:21.218Z,90.03
2019-01-18T02:02:49.803Z,89.89
2019-01-18T02:05:18.468Z,87.78
2019-01-18T02:07:47.025Z,87.91
2019-01-18T02:10:17.514Z,88.17
2019-01-18T02:12:45.999Z,86.81
2019-01-18T02:15:17.459Z,87.44
2019-01-18T02:17:46.029Z,88.25
2019-01-18T02:20:16.687Z,88.16
2019-01-18T02:22:45.340Z,89.84
2019-01-18T02:25:14.144Z,90.15
2019-01-18T02:27:43.169Z,90.38
2019-01-18T02:30:15.226Z,90.66
2019-01-18T02:32:43.782Z,90.84
2019-01-18T02:35:12.416Z,90.66
2019-01-18T02:37:40.928Z,91.61
2019-01-18T02:40:11.847Z,91.22
2019-01-18T02:42:40.641Z,90.50
2019-01-18T02:45:17.233Z,89.75
2019-01-18T02:47:45.805Z,89.86
2019-01-18T02:50:14.461Z,89.12
2019-01-18T02:52:43.064Z,89.50
2019-01-18T02:55:11.812Z,88.94
2019-01-18T02:57:41.699Z,87.85
2019-01-18T03:00:20.971Z,87.92
2019-01-18T03:02:51.423Z,88.46
2019-01-18T03:05:22.777Z,88.33
2019-01-18T03:07:51.334Z,87.66
2019-01-18T03:10:22.098Z,88.13
2019-01-18T03:12:50.689Z,88.96
2019-01-18T03:15:19.185Z,87.46
2019-01-18T03:17:48.066Z,87.70
2019-01-18T03:20:18.101Z,87.69
2019-01-18T03:22:46.642Z,87.81
2019-01-18T03:25:17.563Z,87.31
2019-01-18T03:27:46.025Z,87.52
2019-01-18T03:30:19.803Z,87.93
2019-01-18T03:32:47.685Z,87.93
2019-01-18T03:35:18.131Z,87.44
2019-01-18T03:37:46.656Z,88.01
2019-01-18T03:40:16.620Z,87.99
2019-01-18T03:42:45.257Z,88.01
2019-01-18T03:45:15.851Z,87.41
2019-01-18T03:47:44.414Z,88.18
2019-01-18T03:50:20.981Z,87.83
2019-01-18T03:52:49.622Z,87.81
2019-01-18T03:55:18.341Z,87.90
2019-01-18T03:57:46.955Z,88.34
2019-01-18T04:00:25.959Z,88.21
2019-01-18T04:02:51.260Z,87.92
2019-01-18T04:05:19.895Z,87.95
2019-01-18T04:07:48.459Z,87.80
2019-01-18T04:10:21.258Z,86.82
2019-01-18T04:12:49.782Z,87.05
2019-01-18T04:15:20.886Z,87.28
2019-01-18T04:17:49.471Z,87.07
2019-01-18T04:20:19.489Z,87.17
2019-01-18T04:22:48.050Z,87.17
2019-01-18T04:25:18.438Z,86.13
2019-01-18T04:27:47.017Z,86.73
2019-01-18T04:30:17.753Z,87.28
2019-01-18T04:32:46.294Z,86.39
2019-01-18T04:35:15.283Z,85.90
2019-01-18T04:37:43.838Z,85.82
2019-01-18T04:40:17.497Z,85.61
2019-01-18T04:42:46.082Z,85.69
2019-01-18T04:45:14.699Z,85.47
2019-01-18T04:47:43.402Z,85.56
2019-01-18T04:50:14.446Z,85.42
2019-01-18T04:52:43.367Z,85.35
2019-01-18T04:55:12.061Z,84.88
2019-01-18T04:57:40.579Z,84.62
2019-01-18T05:00:18.296Z,84.50
2019-01-18T05:02:46.968Z,84.75
2019-01-18T05:05:15.487Z,84.14
2019-01-18T05:07:44.036Z,83.65
2019-01-18T05:10:14.909Z,82.41
2019-01-18T05:12:43.450Z,81.90
2019-01-18T05:15:14.568Z,82.60
2019-01-18T05:17:43.120Z,81.90
2019-01-18T05:20:12.347Z,82.35
2019-01-18T05:22:40.856Z,81.29
2019-01-18T05:25:11.932Z,80.06
2019-01-18T05:27:40.865Z,79.74
2019-01-18T05:30:26.653Z,78.70
2019-01-18T05:32:55.261Z,77.82
2019-01-18T05:35:23.760Z,75.29
2019-01-18T05:37:52.392Z,76.26
2019-01-18T05:40:22.192Z,76.23
2019-01-18T05:42:53.954Z,74.67
2019-01-18T05:45:23.169Z,74.70
2019-01-18T05:47:53.215Z,73.96
2019-01-18T05:50:24.712Z,72.66
2019-01-18T05:52:53.285Z,72.38
2019-01-18T05:55:21.892Z,72.37
2019-01-18T05:57:50.914Z,72.10
2019-01-18T06:00:41.405Z,71.92
2019-01-18T06:03:10.048Z,70.78
2019-01-18T06:05:40.987Z,71.55
2019-01-18T06:08:09.506Z,73.19
2019-01-18T06:10:38.207Z,71.63
2019-01-18T06:13:06.729Z,72.39
2019-01-18T06:15:35.325Z,70.85
2019-01-18T06:18:04.230Z,71.94
2019-01-18T06:20:32.843Z,71.35
2019-01-18T06:23:01.563Z,71.67
2019-01-18T06:25:30.222Z,71.23
2019-01-18T06:27:58.880Z,71.62
2019-01-18T06:30:27.554Z,72.69
2019-01-18T06:32:56.059Z,73.21
2019-01-18T06:35:24.634Z,70.71
2019-01-18T06:37:53.170Z,71.69
2019-01-18T06:40:23.035Z,72.54
2019-01-18T06:42:51.506Z,71.41
2019-01-18T06:45:22.632Z,70.60
2019-01-18T06:47:51.092Z,71.46
2019-01-18T06:50:20.392Z,71.39
2019-01-18T06:52:49.162Z,71.04
2019-01-18T06:55:17.798Z,71.13
2019-01-18T06:57:46.426Z,71.81
2019-01-18T07:00:20.876Z,70.83
2019-01-18T07:02:49.531Z,72.09
2019-01-18T07:05:18.239Z,71.23
2019-01-18T07:07:46.925Z,69.77
2019-01-18T07:10:20.946Z,70.38
2019-01-18T07:12:49.654Z,70.57
2019-01-18T07:15:18.313Z,71.56
2019-01-18T07:17:46.972Z,71.89
2019-01-18T07:20:18.098Z,71.15
2019-01-18T07:22:46.752Z,71.32
2019-01-18T07:25:24.449Z,71.44
2019-01-18T07:27:53.068Z,71.71
2019-01-18T07:30:27.696Z,72.32
2019-01-18T07:32:56.556Z,72.46
2019-01-18T07:35:25.128Z,71.71
2019-01-18T07:37:53.636Z,72.21
2019-01-18T07:40:22.286Z,71.98
2019-01-18T07:42:50.900Z,71.10
2019-01-18T07:45:21.750Z,71.02
2019-01-18T07:47:50.262Z,70.72
2019-01-18T07:50:20.159Z,71.78
2019-01-18T07:52:48.978Z,72.13
2019-01-18T07:55:17.921Z,71.89
2019-01-18T07:57:46.545Z,71.11
2019-01-18T08:00:20.400Z,71.70
2019-01-18T08:02:48.957Z,72.06
2019-01-18T08:05:17.703Z,72.15
2019-01-18T08:07:46.333Z,71.39
2019-01-18T08:10:17.124Z,71.95
2019-01-18T08:12:45.849Z,72.49
2019-01-18T08:15:16.548Z,72.60
2019-01-18T08:17:45.123Z,72.72
2019-01-18T08:20:19.479Z,73.01
2019-01-18T08:22:48.059Z,73.33
2019-01-18T08:25:16.923Z,74.04
2019-01-18T08:27:45.509Z,74.68
2019-01-18T08:30:22.725Z,74.62
2019-01-18T08:32:51.338Z,75.07
2019-01-18T08:35:21.339Z,75.42
2019-01-18T08:37:49.870Z,76.37
2019-01-18T08:40:24.458Z,76.43
2019-01-18T08:42:53.277Z,76.82
2019-01-18T08:45:34.237Z,77.06
2019-01-18T08:48:02.871Z,77.09
2019-01-18T08:50:31.449Z,77.59
2019-01-18T08:53:00.194Z,77.37
2019-01-18T08:55:28.793Z,77.36
2019-01-18T08:57:57.256Z,77.66
2019-01-18T09:00:27.816Z,77.76
2019-01-18T09:02:56.397Z,77.84
2019-01-18T09:05:26.413Z,78.03
2019-01-18T09:07:55.342Z,78.40
2019-01-18T09:10:31.616Z,78.39
2019-01-18T09:13:00.112Z,78.28
2019-01-18T09:15:28.628Z,77.88
2019-01-18T09:17:57.184Z,77.92
2019-01-18T09:20:30.068Z,78.03
2019-01-18T09:22:58.628Z,77.97
2019-01-18T09:25:27.520Z,77.81
2019-01-18T09:27:56.173Z,77.36
2019-01-18T09:30:27.768Z,77.44
2019-01-18T09:32:56.562Z,77.30
2019-01-18T09:35:25.867Z,77.66
2019-01-18T09:37:55.890Z,77.43
2019-01-18T09:40:32.330Z,77.10
2019-01-18T09:43:01.125Z,76.93
2019-01-18T09:45:29.890Z,77.20
2019-01-18T09:47:58.479Z,76.81
2019-01-18T09:50:29.006Z,76.78
2019-01-18T09:52:57.872Z,76.90
2019-01-18T09:55:26.732Z,76.59
2019-01-18T09:57:55.323Z,76.03
2019-01-18T10:00:26.337Z,76.63
2019-01-18T10:02:55.095Z,76.65
2019-01-18T10:05:24.306Z,75.65
2019-01-18T10:07:53.088Z,76.16
2019-01-18T10:10:23.042Z,75.89
2019-01-18T10:12:51.860Z,76.00
2019-01-18T10:15:23.075Z,75.90
2019-01-18T10:17:51.669Z,75.43
2019-01-18T10:20:20.530Z,75.51
2019-01-18T10:22:50.309Z,75.79
2019-01-18T10:25:19.581Z,76.00
2019-01-18T10:27:48.280Z,75.87
2019-01-18T10:30:18.693Z,76.53
2019-01-18T10:32:47.359Z,74.68
2019-01-18T10:35:16.481Z,75.33
2019-01-18T10:37:45.440Z,74.90
2019-01-18T10:40:15.445Z,75.33
2019-01-18T10:42:44.825Z,75.08
2019-01-18T10:45:15.114Z,74.80
2019-01-18T10:47:43.749Z,74.09
2019-01-18T10:50:15.669Z,74.54
2019-01-18T10:52:44.404Z,73.82
2019-01-18T10:55:13.039Z,73.96
2019-01-18T10:57:41.614Z,73.66
2019-01-18T11:00:22.387Z,73.34
2019-01-18T11:02:52.039Z,71.74
2019-01-18T11:05:21.290Z,71.91
2019-01-18T11:07:49.896Z,72.61
2019-01-18T11:10:18.590Z,72.84
2019-01-18T11:12:47.263Z,72.41
2019-01-18T11:15:21.003Z,72.67
2019-01-18T11:17:49.766Z,73.26
2019-01-18T11:20:30.288Z,73.21
2019-01-18T11:23:00.234Z,72.10
2019-01-18T11:25:32.033Z,72.20
2019-01-18T11:27:59.725Z,72.89
2019-01-18T11:30:28.301Z,71.93
2019-01-18T11:32:56.838Z,71.62
2019-01-18T11:35:25.489Z,70.71
2019-01-18T11:37:54.085Z,70.90
2019-01-18T11:40:23.740Z,71.29
2019-01-18T11:42:52.422Z,70.59
2019-01-18T11:45:20.951Z,71.14
2019-01-18T11:47:49.484Z,70.80
2019-01-18T11:50:23.338Z,71.08
2019-01-18T11:52:52.025Z,70.83
2019-01-18T11:55:20.605Z,70.92
2019-01-18T11:57:49.234Z,70.60
2019-01-18T12:00:26.367Z,70.80
2019-01-18T12:02:54.973Z,70.43
2019-01-18T12:05:23.668Z,70.51
2019-01-18T12:07:52.102Z,70.00
2019-01-18T12:10:23.383Z,69.34
2019-01-18T12:12:51.975Z,68.49
2019-01-18T12:15:20.495Z,68.64
2019-01-18T12:17:49.054Z,68.95
2019-01-18T12:20:20.833Z,68.48
2019-01-18T12:22:49.329Z,69.06
2019-01-18T12:25:18.081Z,69.21
2019-01-18T12:27:46.667Z,68.95
2019-01-18T12:30:24.301Z,69.08
2019-01-18T12:32:52.917Z,69.14
2019-01-18T12:35:21.529Z,67.87
2019-01-18T12:37:50.046Z,68.64
2019-01-18T12:40:18.560Z,68.68
2019-01-18T12:42:47.390Z,68.26
2019-01-18T12:45:17.884Z,67.95
2019-01-18T12:47:46.470Z,68.69
2019-01-18T12:50:18.227Z,67.41
2019-01-18T12:52:46.789Z,66.86
2019-01-18T12:55:15.337Z,66.69
2019-01-18T12:57:43.831Z,67.14
2019-01-18T13:00:15.173Z,67.46
2019-01-18T13:02:43.677Z,66.32
2019-01-18T13:05:15.276Z,66.13
2019-01-18T13:07:43.999Z,66.53
2019-01-18T13:10:12.514Z,67.08
2019-01-18T13:12:41.153Z,67.19
2019-01-18T13:15:18.688Z,67.54
2019-01-18T13:17:47.178Z,66.95
2019-01-18T13:20:15.661Z,67.10
2019-01-18T13:22:46.920Z,67.77
2019-01-18T13:25:17.087Z,67.89
2019-01-18T13:27:45.649Z,68.30
2019-01-18T13:30:18.549Z,68.26
2019-01-18T13:32:47.177Z,68.93
2019-01-18T13:35:15.823Z,68.78
2019-01-18T13:37:44.707Z,67.88
2019-01-18T13:40:21.216Z,68.55
2019-01-18T13:42:49.728Z,68.66
2019-01-18T13:45:18.579Z,68.75
2019-01-18T13:47:47.598Z,68.10
2019-01-18T13:50:18.172Z,66.96
2019-01-18T13:52:46.900Z,67.30
2019-01-18T13:55:18.504Z,66.65
2019-01-18T13:57:47.197Z,66.90
2019-01-18T14:00:16.023Z,67.49
2019-01-18T14:02:48.437Z,67.10
2019-01-18T14:05:15.187Z,66.72
2019-01-18T14:07:43.800Z,66.26
2019-01-18T14:10:18.160Z,66.92
2019-01-18T14:12:46.692Z,66.76
2019-01-18T14:15:17.788Z,66.78
2019-01-18T14:17:46.551Z,66.16
2019-01-18T14:20:20.986Z,66.44
2019-01-18T14:22:47.891Z,66.36
2019-01-18T14:25:16.663Z,66.70
2019-01-18T14:27:45.237Z,66.80
2019-01-18T14:30:16.861Z,66.77
2019-01-18T14:32:45.549Z,67.10
2019-01-18T14:35:14.213Z,67.08
2019-01-18T14:37:42.893Z,66.55
2019-01-18T14:40:14.017Z,67.09
2019-01-18T14:42:42.749Z,67.26
2019-01-18T14:45:23.091Z,67.91
2019-01-18T14:47:51.706Z,67.86
2019-01-18T14:50:20.986Z,68.18
2019-01-18T14:52:49.618Z,67.41
2019-01-18T14:55:18.500Z,67.94
2019-01-18T14:57:47.275Z,67.47
2019-01-18T15:00:18.649Z,67.77
2019-01-18T15:02:47.199Z,68.02
2019-01-18T15:05:15.865Z,68.50
2019-01-18T15:07:44.403Z,68.45
2019-01-18T15:10:15.812Z,68.74
2019-01-18T15:12:44.575Z,69.00
2019-01-18T15:15:15.047Z,69.44
2019-01-18T15:17:44.624Z,69.36
2019-01-18T15:20:16.348Z,69.68
2019-01-18T15:22:45.188Z,70.14
2019-01-18T15:25:13.845Z,70.30
2019-01-18T15:27:42.593Z,70.38
2019-01-18T15:30:14.173Z,70.71
2019-01-18T15:32:42.845Z,70.73
2019-01-18T15:35:14.817Z,70.95
2019-01-18T15:37:43.442Z,70.87
2019-01-18T15:40:15.275Z,71.33
2019-01-18T15:42:43.739Z,71.45
2019-01-18T15:45:12.740Z,71.57
2019-01-18T15:47:41.298Z,71.34
2019-01-18T15:50:15.602Z,71.82
2019-01-18T15:52:45.062Z,71.78
2019-01-18T15:55:13.880Z,71.99
2019-01-18T15:57:48.265Z,72.06
2019-01-18T16:00:25.314Z,72.08
2019-01-18T16:02:54.998Z,71.94
2019-01-18T16:05:23.718Z,72.32
2019-01-18T16:07:56.057Z,72.49
2019-01-18T16:10:26.346Z,72.38
2019-01-18T16:12:55.016Z,72.48
2019-01-18T16:15:44.917Z,72.37
2019-01-18T16:18:16.497Z,72.60
2019-01-18T16:20:45.730Z,72.77
2019-01-18T16:23:15.976Z,73.10
2019-01-18T16:25:44.779Z,72.84
2019-01-18T16:28:13.294Z,72.99
2019-01-18T16:30:41.849Z,73.28
2019-01-18T16:33:10.631Z,73.54
2019-01-18T16:35:39.315Z,74.17
2019-01-18T16:38:10.901Z,74.10
2019-01-18T16:40:39.454Z,74.71
2019-01-18T16:43:20.016Z,74.56
2019-01-18T16:45:48.630Z,74.46
2019-01-18T16:48:17.379Z,74.95
2019-01-18T16:50:45.916Z,74.99
2019-01-18T16:53:14.583Z,74.65
2019-01-18T16:55:43.230Z,74.96
2019-01-18T16:58:11.944Z,75.11
2019-01-18T17:00:43.843Z,75.06
2019-01-18T17:03:13.858Z,75.10
2019-01-18T17:05:42.513Z,75.35
2019-01-18T17:08:11.113Z,75.31
2019-01-18T17:10:39.745Z,75.64
2019-01-18T17:13:08.504Z,76.01
2019-01-18T17:15:37.319Z,75.73
2019-01-18T17:18:06.004Z,75.97
2019-01-18T17:20:39.986Z,76.66
2019-01-18T17:23:08.889Z,76.75
2019-01-18T17:25:37.801Z,77.45
2019-01-18T17:28:06.423Z,77.70
2019-01-18T17:30:34.954Z,77.99
2019-01-18T17:33:03.544Z,78.06
2019-01-18T17:35:35.151Z,78.09
2019-01-18T17:38:09.774Z,78.37
2019-01-18T17:40:41.429Z,78.23
2019-01-18T17:43:21.973Z,78.45
2019-01-18T17:46:02.442Z,78.18
2019-01-18T17:48:46.040Z,78.12
2019-01-18T17:51:32.514Z,78.07
2019-01-18T17:54:06.769Z,78.06
2019-01-18T17:56:43.922Z,77.95
2019-01-18T17:59:24.578Z,78.09
2019-01-18T18:01:58.724Z,78.61
2019-01-18T18:04:36.380Z,79.27
2019-01-18T18:07:11.120Z,79.15
2019-01-18T18:09:53.906Z,79.54
2019-01-18T18:12:43.232Z,81.24
2019-01-18T18:15:26.692Z,82.28
2019-01-18T18:18:16.681Z,83.84
2019-01-18T18:21:10.769Z,83.81
2019-01-18T18:23:48.365Z,83.85
2019-01-18T18:26:24.646Z,84.28
2019-01-18T18:29:05.794Z,84.04
2019-01-18T18:31:56.721Z,85.56
2019-01-18T18:34:43.105Z,85.72
2019-01-18T18:37:20.753Z,85.80
2019-01-18T18:40:22.313Z,86.85
2019-01-18T18:42:56.860Z,87.09
2019-01-18T18:45:43.401Z,87.65
2019-01-18T18:48:18.571Z,87.07
2019-01-18T18:50:58.719Z,87.03
2019-01-18T18:53:32.814Z,87.03
2019-01-18T18:56:20.678Z,87.18
2019-01-18T18:59:07.188Z,87.30
2019-01-18T19:01:53.440Z,87.13
2019-01-18T19:04:33.941Z,87.15
2019-01-18T19:07:08.488Z,86.85
2019-01-18T19:09:55.181Z,86.91
2019-01-18T19:12:42.944Z,87.09
2019-01-18T19:15:29.767Z,86.94
2019-01-18T19:18:13.197Z,87.00
2019-01-18T19:20:53.644Z,87.17
2019-01-18T19:23:30.953Z,87.35
2019-01-18T19:26:30.930Z,87.28
2019-01-18T19:29:20.404Z,87.34
2019-01-18T19:32:01.119Z,87.05
2019-01-18T19:34:50.923Z,87.11
2019-01-18T19:37:44.777Z,86.96
2019-01-18T19:40:31.262Z,86.86
2019-01-18T19:43:20.682Z,86.60
2019-01-18T19:45:57.918Z,86.72
2019-01-18T19:48:47.797Z,86.65
2019-01-18T19:51:28.284Z,86.35
2019-01-18T19:54:14.565Z,85.81
2019-01-18T19:57:00.847Z,86.14
2019-01-18T19:59:59.663Z,85.69
2019-01-18T20:02:37.249Z,85.40
2019-01-18T20:05:20.557Z,85.80
2019-01-18T20:08:00.646Z,85.66
2019-01-18T20:10:35.552Z,85.90
2019-01-18T20:13:37.136Z,85.69
2019-01-18T20:16:25.111Z,85.53
2019-01-18T20:19:02.529Z,86.27
2019-01-18T20:21:45.957Z,86.19
2019-01-18T20:24:29.807Z,86.21
2019-01-18T20:27:25.722Z,86.19
2019-01-18T20:30:12.052Z,85.75
2019-01-18T20:32:49.823Z,85.42
2019-01-18T20:35:40.826Z,84.95
2019-01-18T20:38:18.600Z,84.90
2019-01-18T20:40:56.919Z,85.09
2019-01-18T20:43:37.074Z,84.82
2019-01-18T20:46:20.400Z,85.05
2019-01-18T20:49:00.958Z,84.72
2019-01-18T20:51:38.385Z,84.23
2019-01-18T20:54:21.650Z,82.97
2019-01-18T20:56:53.227Z,83.44
2019-01-18T20:59:39.755Z,83.35
2019-01-18T21:02:26.268Z,83.17
2019-01-18T21:05:18.502Z,82.78
2019-01-18T21:07:50.317Z,83.00
2019-01-18T21:10:22.100Z,82.99
2019-01-18T21:13:23.441Z,83.45
2019-01-18T21:16:16.019Z,83.28
2019-01-18T21:19:19.231Z,82.80
2019-01-18T21:22:05.859Z,82.95
2019-01-18T21:24:57.008Z,82.68
2019-01-18T21:27:28.915Z,82.88
2019-01-18T21:30:18.626Z,82.87
2019-01-18T21:32:59.214Z,82.67
2019-01-18T21:35:33.502Z,82.50
2019-01-18T21:38:16.877Z,82.80
2019-01-18T21:40:48.621Z,82.94
2019-01-18T21:43:29.254Z,82.81
2019-01-18T21:46:06.420Z,82.82
2019-01-18T21:48:55.824Z,82.05
2019-01-18T21:51:42.437Z,81.68
2019-01-18T21:54:22.781Z,81.20
2019-01-18T21:57:10.999Z,79.31
2019-01-18T22:00:17.082Z,79.03
2019-01-18T22:03:09.656Z,79.03
2019-01-18T22:05:56.223Z,79.43
2019-01-18T22:08:42.865Z,79.39
2019-01-18T22:11:17.326Z,79.75
2019-01-18T22:13:57.964Z,79.71
2019-01-18T22:16:35.301Z,78.75
2019-01-18T22:19:15.759Z,79.17
2019-01-18T22:21:50.670Z,79.62
2019-01-18T22:24:46.583Z,79.10
2019-01-18T22:27:38.987Z,79.08
2019-01-18T22:30:32.631Z,79.25
2019-01-18T22:33:14.883Z,79.20
2019-01-18T22:35:52.090Z,79.57
2019-01-18T22:38:23.747Z,79.66
2019-01-18T22:41:01.209Z,79.91
2019-01-18T22:43:44.090Z,79.75
2019-01-18T22:46:37.890Z,79.30
2019-01-18T22:49:30.728Z,79.41
2019-01-18T22:52:17.096Z,78.59
2019-01-18T22:55:06.685Z,78.24
2019-01-18T22:57:44.054Z,78.09
2019-01-18T23:00:41.803Z,77.88
2019-01-18T23:03:19.681Z,77.41
2019-01-18T23:05:54.206Z,77.63
2019-01-18T23:08:58.969Z,77.69
2019-01-18T23:11:30.656Z,77.54
2019-01-18T23:14:11.324Z,77.60
2019-01-18T23:16:48.899Z,77.45
2019-01-18T23:19:23.353Z,77.06
2019-01-18T23:22:06.750Z,77.65
2019-01-18T23:24:47.028Z,77.53
2019-01-18T23:27:24.255Z,78.10
2019-01-18T23:30:04.991Z,77.87
2019-01-18T23:32:51.681Z,78.02
2019-01-18T23:35:38.600Z,78.19
2019-01-18T23:38:28.078Z,78.39
2019-01-18T23:41:14.516Z,78.29
2019-01-18T23:43:51.879Z,78.48
2019-01-18T23:46:48.954Z,77.90
2019-01-18T23:49:20.515Z,77.69
2019-01-18T23:52:10.124Z,77.35
2019-01-18T23:55:06.847Z,77.52
2019-01-18T23:57:59.746Z,77.36
